createdAt,value
2022-10-09T00:00:51.100Z,7.10
2022-10-09T00:03:41.591Z,7.10
2022-10-09T00:06:32.740Z,7.10
2022-10-09T00:09:22.807Z,7.10
2022-10-09T00:12:11.410Z,7.10
2022-10-09T00:15:00.173Z,7.00
2022-10-09T00:17:48.784Z,7.00
2022-10-09T00:20:38.729Z,7.10
2022-10-09T00:23:27.543Z,7.00
2022-10-09T00:26:17.863Z,7.00
2022-10-09T00:29:06.760Z,7.00
2022-10-09T00:31:55.422Z,7.00
2022-10-09T00:34:44.313Z,7.00
2022-10-09T00:37:32.929Z,6.90
2022-10-09T00:40:21.581Z,6.90
2022-10-09T00:43:17.364Z,6.90
2022-10-09T00:46:06.370Z,6.90
2022-10-09T00:49:00.895Z,6.90
2022-10-09T00:51:51.247Z,6.80
2022-10-09T00:54:42.821Z,6.80
2022-10-09T00:57:34.305Z,6.80
2022-10-09T01:00:25.112Z,6.80
2022-10-09T01:03:13.741Z,6.80
2022-10-09T01:06:09.765Z,6.80
2022-10-09T01:09:05.335Z,6.80
2022-10-09T01:12:00.146Z,6.70
2022-10-09T01:14:55.647Z,6.70
2022-10-09T01:17:55.458Z,6.80
2022-10-09T01:20:50.580Z,6.70
2022-10-09T01:24:07.684Z,6.70
2022-10-09T01:27:07.162Z,6.70
2022-10-09T01:29:59.818Z,6.60
2022-10-09T01:32:51.963Z,6.60
2022-10-09T01:35:42.112Z,6.60
2022-10-09T01:38:31.643Z,6.50
2022-10-09T01:41:21.137Z,6.50
2022-10-09T01:44:19.206Z,6.50
2022-10-09T01:47:08.000Z,6.50
2022-10-09T01:50:02.874Z,6.60
2022-10-09T01:52:54.543Z,6.60
2022-10-09T01:55:49.833Z,6.60
2022-10-09T01:58:44.614Z,6.60
2022-10-09T02:01:37.846Z,6.60
2022-10-09T02:04:28.336Z,6.60
2022-10-09T02:07:17.823Z,6.60
2022-10-09T02:10:08.025Z,6.60
2022-10-09T02:12:58.842Z,6.60
2022-10-09T02:15:51.685Z,6.60
2022-10-09T02:18:45.464Z,6.60
2022-10-09T02:21:43.033Z,6.60
2022-10-09T02:24:35.408Z,6.60
2022-10-09T02:27:24.964Z,6.70
2022-10-09T02:30:15.239Z,6.70
2022-10-09T02:33:05.305Z,6.70
2022-10-09T02:35:55.451Z,6.70
2022-10-09T02:38:43.992Z,6.60
2022-10-09T02:41:32.657Z,6.60
2022-10-09T02:44:21.144Z,6.60
2022-10-09T02:47:09.735Z,6.50
2022-10-09T02:49:58.277Z,6.50
2022-10-09T02:52:48.423Z,6.40
2022-10-09T02:55:37.989Z,6.40
2022-10-09T02:58:26.536Z,6.30
2022-10-09T03:01:15.574Z,6.30
2022-10-09T03:04:04.108Z,6.20
2022-10-09T03:06:52.706Z,6.20
2022-10-09T03:09:42.917Z,6.20
2022-10-09T03:12:31.464Z,6.20
2022-10-09T03:15:20.025Z,6.10
2022-10-09T03:18:08.592Z,6.20
2022-10-09T03:20:57.141Z,6.10
2022-10-09T03:23:45.926Z,6.20
2022-10-09T03:26:35.886Z,6.10
2022-10-09T03:29:24.486Z,6.10
2022-10-09T03:32:13.103Z,6.10
2022-10-09T03:35:01.691Z,6.00
2022-10-09T03:37:50.350Z,6.00
2022-10-09T03:40:38.877Z,6.10
2022-10-09T03:43:29.660Z,6.10
2022-10-09T03:46:18.274Z,6.10
2022-10-09T03:49:06.839Z,6.00
2022-10-09T03:51:55.416Z,6.00
2022-10-09T03:54:43.956Z,6.00
2022-10-09T03:57:32.538Z,5.90
2022-10-09T04:00:22.593Z,5.90
2022-10-09T04:03:11.204Z,5.90
2022-10-09T04:05:59.765Z,5.80
2022-10-09T04:08:48.346Z,5.80
2022-10-09T04:11:36.935Z,5.80
2022-10-09T04:14:25.490Z,5.80
2022-10-09T04:17:15.448Z,5.70
2022-10-09T04:20:04.113Z,5.80
2022-10-09T04:22:52.676Z,5.80
2022-10-09T04:25:41.196Z,5.80
2022-10-09T04:28:31.304Z,5.80
2022-10-09T04:31:19.996Z,5.70
2022-10-09T04:34:10.060Z,5.70
2022-10-09T04:36:58.651Z,5.70
2022-10-09T04:39:47.190Z,5.70
2022-10-09T04:42:35.756Z,5.70
2022-10-09T04:45:24.358Z,5.70
2022-10-09T04:48:12.948Z,5.80
2022-10-09T04:51:05.289Z,5.80
2022-10-09T04:53:57.185Z,5.80
2022-10-09T04:56:48.452Z,5.80
2022-10-09T04:59:37.120Z,5.80
2022-10-09T05:02:25.731Z,5.80
2022-10-09T05:05:14.301Z,5.80
2022-10-09T05:08:04.397Z,5.80
2022-10-09T05:10:52.941Z,5.80
2022-10-09T05:13:42.769Z,5.80
2022-10-09T05:16:37.670Z,5.80
2022-10-09T05:19:38.228Z,5.80
2022-10-09T05:22:26.755Z,5.80
2022-10-09T05:25:16.989Z,5.80
2022-10-09T05:28:06.413Z,5.80
2022-10-09T05:30:55.297Z,5.70
2022-10-09T05:33:43.848Z,5.70
2022-10-09T05:36:32.529Z,5.70
2022-10-09T05:39:21.132Z,5.70
2022-10-09T05:42:11.069Z,5.70
2022-10-09T05:44:59.628Z,5.70
2022-10-09T05:47:48.179Z,5.60
2022-10-09T05:50:36.761Z,5.60
2022-10-09T05:53:25.335Z,5.60
2022-10-09T05:56:15.758Z,5.70
2022-10-09T05:59:07.220Z,5.70
2022-10-09T06:01:55.763Z,5.70
2022-10-09T06:04:44.446Z,5.70
2022-10-09T06:07:32.969Z,5.70
2022-10-09T06:10:21.538Z,5.90
2022-10-09T06:13:10.131Z,6.10
2022-10-09T06:16:00.071Z,6.50
2022-10-09T06:18:49.794Z,7.30
2022-10-09T06:21:38.413Z,8.10
2022-10-09T06:24:29.364Z,8.80
2022-10-09T06:27:18.204Z,9.40
2022-10-09T06:30:07.636Z,9.90
2022-10-09T06:32:57.579Z,10.20
2022-10-09T06:35:46.134Z,10.60
2022-10-09T06:38:35.203Z,10.80
2022-10-09T06:41:25.947Z,10.70
2022-10-09T06:44:17.163Z,10.50
2022-10-09T06:47:06.234Z,10.20
2022-10-09T06:49:57.285Z,10.00
2022-10-09T06:52:45.992Z,9.90
2022-10-09T06:55:34.784Z,9.90
2022-10-09T06:58:23.407Z,9.90
2022-10-09T07:01:14.430Z,9.90
2022-10-09T07:04:07.046Z,9.90
2022-10-09T07:06:57.020Z,9.90
2022-10-09T07:09:45.611Z,9.90
2022-10-09T07:12:35.694Z,9.90
2022-10-09T07:15:24.253Z,10.00
2022-10-09T07:18:12.825Z,10.10
2022-10-09T07:21:03.299Z,10.20
2022-10-09T07:23:54.149Z,10.30
2022-10-09T07:26:44.754Z,10.30
2022-10-09T07:29:33.328Z,10.40
2022-10-09T07:32:21.855Z,10.40
2022-10-09T07:35:10.799Z,10.60
2022-10-09T07:37:59.347Z,10.70
2022-10-09T07:40:49.355Z,10.70
2022-10-09T07:43:38.902Z,10.70
2022-10-09T07:46:33.366Z,10.80
2022-10-09T07:49:22.910Z,11.00
2022-10-09T07:52:11.434Z,11.00
2022-10-09T07:55:00.036Z,11.00
2022-10-09T07:57:49.990Z,11.00
2022-10-09T08:00:38.574Z,10.90
2022-10-09T08:03:27.127Z,11.00
2022-10-09T08:06:15.745Z,11.10
2022-10-09T08:09:06.154Z,11.20
2022-10-09T08:11:54.806Z,11.20
2022-10-09T08:14:46.985Z,11.20
2022-10-09T08:17:35.549Z,11.30
2022-10-09T08:20:24.213Z,11.40
2022-10-09T08:23:12.816Z,11.40
2022-10-09T08:26:01.684Z,11.40
2022-10-09T08:28:52.341Z,11.40
2022-10-09T08:31:42.415Z,11.30
2022-10-09T08:34:31.173Z,11.40
2022-10-09T08:37:19.800Z,11.50
2022-10-09T08:40:09.524Z,11.50
2022-10-09T08:43:04.419Z,11.60
2022-10-09T08:45:53.856Z,11.60
2022-10-09T08:48:46.996Z,11.60
2022-10-09T08:51:39.549Z,11.70
2022-10-09T08:54:34.543Z,11.90
2022-10-09T08:57:24.118Z,12.00
2022-10-09T09:00:19.467Z,12.10
2022-10-09T09:03:31.121Z,12.10
2022-10-09T09:06:28.713Z,12.20
2022-10-09T09:09:24.777Z,12.20
2022-10-09T09:12:19.682Z,12.30
2022-10-09T09:15:29.186Z,12.50
2022-10-09T09:18:42.680Z,12.70
2022-10-09T09:21:39.946Z,12.80
2022-10-09T09:24:35.022Z,13.00
2022-10-09T09:27:29.969Z,13.20
2022-10-09T09:30:22.305Z,13.50
2022-10-09T09:33:20.485Z,13.80
2022-10-09T09:36:13.281Z,13.70
2022-10-09T09:39:44.561Z,13.30
2022-10-09T09:42:17.655Z,12.90
2022-10-09T09:45:13.924Z,13.10
2022-10-09T09:48:10.817Z,13.50
2022-10-09T09:51:23.522Z,13.70
2022-10-09T09:54:18.481Z,13.90
2022-10-09T09:57:17.143Z,13.50
2022-10-09T10:00:19.666Z,13.60
2022-10-09T10:03:15.153Z,13.40
2022-10-09T10:06:04.034Z,13.10
2022-10-09T10:09:15.674Z,13.00
2022-10-09T10:12:07.229Z,12.80
2022-10-09T10:14:55.927Z,12.70
2022-10-09T10:17:44.534Z,12.70
2022-10-09T10:20:35.252Z,12.80
2022-10-09T10:23:31.105Z,12.70
2022-10-09T10:26:26.376Z,12.70
2022-10-09T10:29:18.042Z,12.80
2022-10-09T10:32:14.234Z,12.70
2022-10-09T10:35:06.203Z,12.70
2022-10-09T10:38:00.609Z,12.80
2022-10-09T10:40:53.938Z,12.70
2022-10-09T10:43:46.710Z,12.80
2022-10-09T10:46:40.803Z,12.70
2022-10-09T10:49:33.490Z,12.70
2022-10-09T10:52:34.503Z,12.80
2022-10-09T10:55:34.497Z,12.70
2022-10-09T10:58:28.762Z,12.80
2022-10-09T11:01:31.996Z,12.70
2022-10-09T11:04:43.577Z,12.80
2022-10-09T11:07:36.488Z,12.90
2022-10-09T11:10:33.995Z,13.00
2022-10-09T11:13:28.122Z,13.10
2022-10-09T11:16:32.957Z,13.20
2022-10-09T11:19:43.056Z,13.30
2022-10-09T11:22:50.209Z,13.30
2022-10-09T11:25:47.468Z,13.40
2022-10-09T11:28:43.225Z,13.50
2022-10-09T11:31:41.616Z,13.60
2022-10-09T11:34:34.879Z,13.70
2022-10-09T11:37:28.397Z,13.60
2022-10-09T11:40:20.020Z,13.70
2022-10-09T11:43:17.794Z,13.60
2022-10-09T11:46:11.719Z,13.40
2022-10-09T11:49:11.075Z,13.40
2022-10-09T11:52:10.029Z,13.40
2022-10-09T11:55:09.834Z,13.40
2022-10-09T11:58:14.902Z,13.50
2022-10-09T12:01:20.508Z,14.10
2022-10-09T12:04:37.417Z,14.30
2022-10-09T12:07:35.156Z,14.40
2022-10-09T12:10:29.155Z,14.20
2022-10-09T12:13:42.343Z,14.00
2022-10-09T12:16:35.082Z,14.00
2022-10-09T12:19:28.340Z,14.00
2022-10-09T12:22:20.985Z,14.00
2022-10-09T12:25:18.170Z,13.80
2022-10-09T12:28:07.795Z,13.80
2022-10-09T12:30:57.933Z,13.70
2022-10-09T12:33:50.523Z,13.70
2022-10-09T12:36:40.560Z,14.00
2022-10-09T12:39:29.099Z,14.20
2022-10-09T12:42:22.128Z,14.40
2022-10-09T12:45:18.092Z,14.30
2022-10-09T12:48:12.260Z,14.00
2022-10-09T12:51:00.825Z,13.80
2022-10-09T12:53:53.256Z,13.70
2022-10-09T12:56:41.943Z,13.70
2022-10-09T12:59:31.020Z,13.80
2022-10-09T13:02:22.269Z,13.80
2022-10-09T13:05:11.030Z,13.90
2022-10-09T13:07:59.670Z,14.00
2022-10-09T13:10:49.756Z,14.00
2022-10-09T13:13:39.076Z,14.00
2022-10-09T13:16:27.849Z,14.00
2022-10-09T13:19:24.768Z,14.10
2022-10-09T13:22:21.200Z,14.20
2022-10-09T13:25:10.710Z,14.30
2022-10-09T13:28:00.938Z,14.50
2022-10-09T13:30:49.534Z,14.50
2022-10-09T13:33:38.134Z,14.50
2022-10-09T13:36:26.691Z,14.50
2022-10-09T13:39:16.280Z,14.30
2022-10-09T13:42:05.416Z,14.20
2022-10-09T13:44:55.298Z,14.10
2022-10-09T13:47:43.873Z,13.90
2022-10-09T13:50:32.424Z,14.00
2022-10-09T13:53:21.013Z,14.10
2022-10-09T13:56:09.700Z,14.10
2022-10-09T13:58:58.261Z,13.90
2022-10-09T14:01:48.281Z,13.90
2022-10-09T14:04:36.896Z,13.80
2022-10-09T14:07:25.541Z,13.80
2022-10-09T14:10:14.153Z,13.80
2022-10-09T14:13:02.721Z,13.80
2022-10-09T14:15:53.216Z,13.80
2022-10-09T14:18:43.154Z,13.80
2022-10-09T14:21:32.255Z,13.70
2022-10-09T14:24:20.810Z,13.60
2022-10-09T14:27:09.370Z,13.60
2022-10-09T14:29:57.935Z,13.70
2022-10-09T14:32:46.797Z,13.70
2022-10-09T14:35:37.021Z,13.60
2022-10-09T14:38:25.577Z,13.50
2022-10-09T14:41:14.458Z,13.60
2022-10-09T14:44:03.167Z,13.50
2022-10-09T14:46:51.725Z,13.50
2022-10-09T14:49:40.262Z,13.50
2022-10-09T14:52:30.522Z,13.50
2022-10-09T14:55:19.154Z,13.40
2022-10-09T14:58:07.729Z,13.30
2022-10-09T15:00:56.280Z,13.30
2022-10-09T15:03:46.067Z,13.20
2022-10-09T15:06:35.021Z,13.30
2022-10-09T15:09:25.154Z,13.30
2022-10-09T15:12:13.676Z,13.30
2022-10-09T15:15:02.253Z,13.20
2022-10-09T15:17:51.030Z,13.10
2022-10-09T15:20:39.876Z,13.10
2022-10-09T15:23:28.763Z,13.10
2022-10-09T15:26:18.905Z,13.00
2022-10-09T15:29:09.594Z,13.00
2022-10-09T15:31:58.140Z,13.00
2022-10-09T15:34:46.639Z,12.90
2022-10-09T15:37:35.248Z,12.90
2022-10-09T15:40:23.828Z,12.80
2022-10-09T15:43:14.224Z,12.80
2022-10-09T15:46:04.465Z,12.80
2022-10-09T15:48:53.356Z,12.80
2022-10-09T15:51:42.165Z,12.70
2022-10-09T15:54:30.802Z,12.60
2022-10-09T15:57:19.570Z,12.60
2022-10-09T16:00:11.029Z,12.50
2022-10-09T16:02:59.565Z,12.50
2022-10-09T16:05:51.040Z,12.50
2022-10-09T16:08:39.942Z,12.50
2022-10-09T16:11:28.537Z,12.40
2022-10-09T16:14:17.095Z,12.30
2022-10-09T16:17:11.081Z,12.20
2022-10-09T16:20:00.295Z,12.20
2022-10-09T16:22:48.981Z,12.20
2022-10-09T16:25:39.281Z,12.10
2022-10-09T16:28:28.694Z,12.00
2022-10-09T16:31:21.939Z,12.00
2022-10-09T16:34:12.076Z,11.90
2022-10-09T16:37:02.265Z,11.70
2022-10-09T16:39:50.793Z,11.70
2022-10-09T16:42:39.380Z,11.60
2022-10-09T16:45:28.433Z,11.60
2022-10-09T16:48:17.152Z,11.50
2022-10-09T16:51:11.352Z,11.50
2022-10-09T16:54:02.233Z,11.40
2022-10-09T16:56:50.840Z,11.40
2022-10-09T16:59:39.726Z,11.20
2022-10-09T17:02:28.765Z,11.10
2022-10-09T17:05:17.461Z,11.00
2022-10-09T17:08:07.427Z,10.90
2022-10-09T17:10:55.998Z,10.70
2022-10-09T17:13:45.084Z,10.60
2022-10-09T17:16:35.952Z,10.50
2022-10-09T17:19:24.528Z,10.40
2022-10-09T17:22:13.071Z,10.30
2022-10-09T17:25:03.291Z,10.20
2022-10-09T17:27:51.817Z,10.20
2022-10-09T17:30:41.578Z,10.20
2022-10-09T17:33:30.733Z,10.10
2022-10-09T17:36:21.696Z,10.00
2022-10-09T17:39:14.094Z,10.00
2022-10-09T17:42:04.048Z,10.00
2022-10-09T17:44:52.581Z,10.10
2022-10-09T17:47:41.127Z,10.10
2022-10-09T17:50:29.684Z,10.10
2022-10-09T17:53:18.243Z,10.20
2022-10-09T17:56:06.904Z,10.50
2022-10-09T17:58:57.331Z,10.50
2022-10-09T18:01:47.368Z,10.50
2022-10-09T18:04:35.954Z,10.50
2022-10-09T18:07:24.875Z,10.50
2022-10-09T18:10:16.687Z,10.40
2022-10-09T18:13:05.580Z,10.30
2022-10-09T18:15:55.882Z,10.30
2022-10-09T18:18:44.843Z,10.30
2022-10-09T18:21:34.147Z,10.30
2022-10-09T18:24:22.722Z,10.30
2022-10-09T18:27:11.270Z,10.20
2022-10-09T18:29:59.837Z,10.20
2022-10-09T18:32:50.551Z,10.10
2022-10-09T18:35:40.407Z,10.00
2022-10-09T18:38:28.991Z,10.00
2022-10-09T18:41:17.945Z,10.00
2022-10-09T18:44:07.517Z,9.90
2022-10-09T18:46:59.084Z,10.00
2022-10-09T18:49:55.808Z,10.00
2022-10-09T18:52:45.079Z,9.80
2022-10-09T18:55:34.109Z,9.80
2022-10-09T18:58:22.938Z,9.90
2022-10-09T19:01:11.973Z,9.90
2022-10-09T19:04:00.569Z,10.10
2022-10-09T19:06:51.357Z,10.10
2022-10-09T19:09:40.474Z,10.10
2022-10-09T19:12:29.060Z,10.20
2022-10-09T19:15:17.922Z,10.40
2022-10-09T19:18:06.876Z,10.50
2022-10-09T19:20:55.506Z,10.40
2022-10-09T19:23:48.066Z,10.30
2022-10-09T19:26:36.671Z,10.20
2022-10-09T19:29:25.448Z,10.10
2022-10-09T19:32:14.024Z,10.00
2022-10-09T19:35:02.675Z,10.30
2022-10-09T19:37:51.601Z,10.60
2022-10-09T19:40:41.984Z,10.70
2022-10-09T19:43:31.849Z,10.80
2022-10-09T19:46:22.699Z,10.90
2022-10-09T19:49:11.191Z,10.90
2022-10-09T19:51:59.784Z,10.90
2022-10-09T19:54:48.345Z,11.10
2022-10-09T19:57:38.294Z,11.10
2022-10-09T20:00:26.919Z,11.20
2022-10-09T20:03:15.964Z,11.20
2022-10-09T20:06:05.126Z,11.20
2022-10-09T20:08:54.012Z,11.20
2022-10-09T20:11:42.677Z,11.30
2022-10-09T20:14:32.652Z,11.30
2022-10-09T20:17:21.208Z,11.20
2022-10-09T20:20:10.605Z,11.30
2022-10-09T20:22:59.162Z,11.30
2022-10-09T20:25:48.513Z,11.20
2022-10-09T20:28:38.820Z,11.20
2022-10-09T20:31:30.320Z,11.20
2022-10-09T20:34:18.901Z,11.20
2022-10-09T20:37:07.445Z,11.20
2022-10-09T20:39:56.211Z,11.30
2022-10-09T20:42:44.773Z,11.30
2022-10-09T20:45:33.387Z,11.30
2022-10-09T20:48:23.340Z,11.30
2022-10-09T20:51:12.081Z,11.30
2022-10-09T20:54:01.724Z,11.40
2022-10-09T20:56:50.928Z,11.40
2022-10-09T20:59:39.496Z,11.30
2022-10-09T21:02:28.077Z,11.30
2022-10-09T21:05:18.121Z,11.20
2022-10-09T21:08:07.333Z,11.20
2022-10-09T21:10:55.929Z,11.20
2022-10-09T21:13:45.242Z,11.10
2022-10-09T21:16:33.870Z,11.00
2022-10-09T21:19:22.502Z,11.00
2022-10-09T21:22:13.258Z,10.90
2022-10-09T21:25:01.889Z,11.00
2022-10-09T21:27:50.492Z,10.90
2022-10-09T21:30:41.726Z,10.70
2022-10-09T21:33:30.474Z,10.60
2022-10-09T21:36:24.220Z,10.60
2022-10-09T21:39:14.548Z,10.60
2022-10-09T21:42:03.154Z,10.60
2022-10-09T21:44:51.729Z,10.60
2022-10-09T21:47:41.252Z,10.60
2022-10-09T21:50:30.210Z,10.60
2022-10-09T21:53:18.736Z,10.60
2022-10-09T21:56:09.952Z,10.60
2022-10-09T21:58:58.489Z,10.60
2022-10-09T22:01:47.155Z,10.50
2022-10-09T22:04:35.978Z,10.40
2022-10-09T22:07:26.424Z,10.40
2022-10-09T22:10:15.368Z,10.30
2022-10-09T22:13:05.304Z,10.20
2022-10-09T22:15:53.900Z,10.10
2022-10-09T22:18:43.446Z,10.20
2022-10-09T22:21:32.333Z,10.20
2022-10-09T22:24:20.978Z,10.20
2022-10-09T22:27:09.586Z,10.20
2022-10-09T22:29:59.577Z,10.10
2022-10-09T22:32:48.469Z,10.10
2022-10-09T22:35:37.303Z,10.10
2022-10-09T22:38:25.820Z,10.10
2022-10-09T22:41:16.011Z,10.10
2022-10-09T22:44:06.483Z,10.20
2022-10-09T22:46:56.465Z,10.10
2022-10-09T22:49:45.200Z,9.90
2022-10-09T22:52:33.791Z,9.80
2022-10-09T22:55:22.373Z,9.80
2022-10-09T22:58:10.897Z,9.70
2022-10-09T23:01:02.614Z,9.50
2022-10-09T23:03:52.707Z,9.60
2022-10-09T23:06:42.023Z,9.50
2022-10-09T23:09:32.590Z,9.40
2022-10-09T23:12:21.182Z,9.40
2022-10-09T23:15:10.379Z,9.40
2022-10-09T23:17:58.934Z,9.30
2022-10-09T23:20:48.883Z,9.30
2022-10-09T23:23:37.663Z,9.20
2022-10-09T23:26:28.902Z,9.20
2022-10-09T23:29:19.397Z,9.20
2022-10-09T23:32:08.002Z,9.00
2022-10-09T23:34:56.540Z,8.90
2022-10-09T23:37:46.465Z,9.00
2022-10-09T23:40:35.034Z,9.00
2022-10-09T23:43:23.641Z,9.20
2022-10-09T23:46:14.325Z,9.40
2022-10-09T23:49:03.263Z,9.50
2022-10-09T23:51:51.829Z,9.50
2022-10-09T23:54:41.913Z,9.50
2022-10-09T23:57:30.498Z,9.50
